Monday, November 20, 2017, 2:36 AM EST
Back to Local

KITH, Ithaca, Ithaca Tompkins Regional Airport

Location: Ithaca, NY, United States Lat: 42.491
Local Time: 2:36 AM EST ( 7:36 GMT) Lon: -76.458
Time Zone: US/Eastern Elev: 1099 ft

Show me the last for .
Show Decoded

2017-11-20 01:56 METAR KITH 200656Z AUTO 27008KT 9SM -SN FEW007 BKN038 OVC065 M03/M04 A2986 RMK
                 AO2 SNB00 SLP121 P0000 T10281039 =
2017-11-20 01:46 METAR KITH 200646Z AUTO 30009G19KT 2SM R32/3500VP6000FT -SN BR FEW007 BKN020
                 OVC027 M03/M04 A2985 RMK AO2 VIS 1 1/4V5 SNB00 P0000 =
2017-11-20 01:44 METAR KITH 200644Z AUTO 29010G19KT 1 3/4SM R32/3500VP6000FT -SN BR FEW007 BKN013
                 OVC027 M02/M04 A2984 RMK AO2 VIS 1 1/4V4 SNB00 P0000 =
2017-11-20 00:56 METAR KITH 200556Z AUTO 31010KT 10SM BKN027 BKN032 OVC060 M02/M06 A2983 RMK AO2
                 SLP114 60000 T10171056 10000 21017 51015 =
2017-11-20 00:52 METAR KITH 200552Z AUTO 31010KT 10SM SCT027 BKN049 OVC060 M02/M06 A2983 RMK AO2
                 =
2017-11-20 00:37 METAR KITH 200537Z AUTO 32010KT 10SM BKN027 OVC060 M02/M06 A2983 RMK AO2 =
2017-11-19 23:56 METAR KITH 200456Z AUTO 31013KT 10SM FEW029 OVC060 M02/M06 A2982 RMK AO2 SNE27
                 SLP108 P0000 T10171061 =
2017-11-19 23:18 METAR KITH 200418Z AUTO 31016G23KT 9SM -SN FEW028 OVC034 M01/M06 A2980 RMK AO2
                 P0000 =
2017-11-19 22:56 METAR KITH 200356Z AUTO 31016G20KT 9SM -SN BKN028 BKN036 OVC044 M01/M05 A2979
                 RMK AO2 PK WND 29026/0317 SNB51 SLP098 P0000 T10111050 401001011 =
2017-11-19 22:06 METAR KITH 200306Z AUTO 28017G25KT 10SM BKN032 BKN039 OVC075 M01/M04 A2978 RMK
                 AO2 =
2017-11-19 21:56 METAR KITH 200256Z 29018G24KT 10SM BKN027 BKN034 OVC075 M01/M04 A2977 RMK AO2
                 SLP092 60000 T10061044 52022 =
2017-11-19 20:56 METAR KITH 200156Z 28013KT 10SM FEW025 OVC070 M01/M03 A2975 RMK AO2 SLP084
                 T10061033 =
2017-11-19 19:56 METAR KITH 200056Z 29017KT 10SM BKN016 OVC090 00/M02 A2973 RMK AO2 SNE21 SLP076
                 P0000 T00001022 =
2017-11-19 18:56 METAR KITH 192356Z 28012G19KT 2SM R32/4500VP6000FT -SN BR BKN008 OVC026 00/M01
                 A2970 RMK AO2 RAB34E37 SLP068 P0000 60000 T00001006 10022 20000 53020 =
2017-11-19 18:53 METAR KITH 192353Z 29014KT 2SM R32/4500VP6000FT -SN BR BKN008 OVC026 00/M01
                 A2970 RMK AO2 RAB34E37 P0000 =
2017-11-19 17:56 METAR KITH 192256Z 28010KT 4SM -SN BR SCT021 OVC034 01/M02 A2968 RMK AO2 SLP059
                 P0000 T00061017 =
2017-11-19 16:56 METAR KITH 192156Z 29011G19KT 10SM -SN BKN029 OVC038 02/M02 A2966 RMK AO2
                 RAB48E50SNB50 SLP051 P0000 T00171022 =
2017-11-19 15:56 METAR KITH 192056Z 30009G15KT 10SM BKN029 OVC045 02/M03 A2964 RMK AO2 SLP042
                 60000 T00221028 53017 =
2017-11-19 14:56 METAR KITH 191956Z 30013G21KT 10SM BKN020 OVC036 02/M03 A2962 RMK AO2 SNE1857
                 SLP035 T00221033 =
2017-11-19 13:56 METAR KITH 191856Z 31012G15KT 9SM -SN SCT015 OVC030 02/M01 A2960 RMK AO2 SLP028
                 P0000 T00171011 =
2017-11-19 12:56 METAR KITH 191756Z 29014G19KT 10SM R32/6000VP6000FT -SN SCT012 OVC022 01/M01
                 A2959 RMK AO2 PK WND 29029/1733 RAB46E48SNB48 SLP026 P0000 60000 T00111006 10022
                 20011 51020 =
2017-11-19 11:56 METAR KITH 191656Z 29019G27KT 10SM BKN026 OVC031 02/M02 A2957 RMK AO2 PK WND
                 30030/1625 SLP019 T00221022 =
2017-11-19 10:56 METAR KITH 191556Z 30020G26KT 10SM OVC015 02/M01 A2956 RMK AO2 PK WND 29035/1540
                 SLP015 T00171011 =
2017-11-19 09:56 METAR KITH 191456Z 29021G30KT 10SM OVC015 02/M02 A2953 RMK AO2 PK WND 29035/1426
                 SNE52 SLP006 P0000 60000 T00171017 51057 =
2017-11-19 08:56 METAR KITH 191356Z 30018G26KT 9SM -SN OVC012 01/M01 A2948 RMK AO2 PK WND
                 28032/1323 RAB36E48UPB37E45SNB48 SLP990 P0000 T00111006 =
2017-11-19 07:56 METAR KITH 191256Z 29017G29KT 10SM OVC014 01/M01 A2944 RMK AO2 PK WND 28032/1237
                 PRESRR SLP977 T00111011 =
2017-11-19 06:56 METAR KITH 191156Z 29023G31KT 10SM BKN014 OVC019 02/00 A2936 RMK AO2 PK WND
                 30036/1126 RAE51 PRESRR SLP947 P0001 60008 70025 T00170000 10100 20017 51094 =
2017-11-19 06:31 METAR KITH 191131Z 29026G36KT 10SM -RA SCT012 OVC019 02/00 A2933 RMK AO2 PK WND
                 30036/1126 PRESRR P0000 =
2017-11-19 06:22 METAR KITH 191122Z AUTO 30024G30KT 10SM SCT012 OVC019 02/01 A2931 RMK AO2 PK WND
                 29030/1114 RAE21 PRESRR P0000 =
2017-11-19 06:16 METAR KITH 191116Z AUTO 29020G30KT 10SM -RA BKN009 BKN014 OVC019 02/01 A2930 RMK
                 AO2 PK WND 29030/1114 CIG 009V013 P0000 =
2017-11-19 05:56 METAR KITH 191056Z AUTO 29018G24KT 9SM -RA BKN012 OVC017 03/02 A2928 RMK AO2 PK
                 WND 30036/0957 SLP921 P0001 T00330022 =
2017-11-19 05:13 METAR KITH 191013Z AUTO 29022G30KT 10SM -RA FEW010 BKN014 OVC027 04/03 A2922 RMK
                 AO2 PK WND 30036/0957 P0000 =
2017-11-19 05:06 METAR KITH 191006Z AUTO 30020G36KT 10SM -RA SCT010 BKN015 OVC027 04/03 A2921 RMK
                 AO2 PK WND 30036/0957 P0000 =
2017-11-19 04:56 METAR KITH 190956Z AUTO 30025G34KT 7SM -RA BKN010 OVC016 05/04 A2919 RMK AO2 PK
                 WND 30035/0946 WSHFT 0928 RAE02B36 CIG 007V013 PRESRR SLP889 P0003 T00500039 =
2017-11-19 04:48 METAR KITH 190948Z AUTO 30025G35KT 5SM RA BR SCT010 OVC016 06/04 A2917 RMK AO2
                 PK WND 30035/0946 WSHFT 0928 RAE02B36 PRESRR P0002 =
2017-11-19 03:56 METAR KITH 190856Z AUTO 19012G17KT 8SM -RA OVC020 10/08 A2907 RMK AO2 SLP846
                 P0001 60003 T01000083 55017 =
2017-11-19 02:56 METAR KITH 190756Z AUTO 17014G21KT 10SM -RA BKN015 OVC023 09/07 A2906 RMK AO2
                 RAE18B45 SLP845 P0001 T00890072 =

Support USWX by starting your Amazon purchase here.